Other Surface Observations
Issued by NWS Missoula, MT

Home | Current Version | Previous Version | Text Only | Print | Product List | Glossary On
Versions: 1 2 3 4 5 6 7 8 9 10 11 12 13 14 15 16 17 18 19 20 21 22 23 24 25 26 27 28 29 30 31 32 33 34 35 36 37 38 39 40 41 42 43 44 45 46 47 48 49 50
845
SXUS55 KMSO 280103
OSOMSO
MONTANA AWOS SUMMARY
NATIONAL WEATHER SERVICE MISSOULA MT
602 PM MST MON FEB 27 2017

Montana AWOS Reports

LAUREL      |K6S8 280055Z AUTO 34006KT 40SM M03/M11 A2963 RMK AO1 T10271105
SCOBEY      |K9S2 280055Z AUTO 00000KT 40SM M13/M19 A2977 RMK AO1 T11271193
PLAINS      |KS34 280055Z AUTO 00000KT 25SM M02/M06 A2964 RMK AO1 T10211055
TWIN BRIDGES|K7S1 280055Z AUTO 00000KT 40SM M01/M12 A2960 RMK AO1 T10101121




USA.gov is the U.S. government's official web portal to all federal, state and local government web resources and services.